createdAt,value
2017-09-14T00:01:28.531Z,1.40
2017-09-14T00:03:58.001Z,1.50
2017-09-14T00:06:26.351Z,1.17
2017-09-14T00:08:54.709Z,1.40
2017-09-14T00:11:24.094Z,1.57
2017-09-14T00:13:52.490Z,1.47
2017-09-14T00:16:22.024Z,1.23
2017-09-14T00:18:50.902Z,1.43
2017-09-14T00:21:20.785Z,1.30
2017-09-14T00:23:49.924Z,1.10
2017-09-14T00:26:19.594Z,1.40
2017-09-14T00:28:48.793Z,1.30
2017-09-14T00:31:17.870Z,1.40
2017-09-14T00:33:46.502Z,1.97
2017-09-14T00:36:14.897Z,1.33
2017-09-14T00:38:43.378Z,1.57
2017-09-14T00:41:12.179Z,1.67
2017-09-14T00:43:40.707Z,1.53
2017-09-14T00:46:09.062Z,1.53
2017-09-14T00:48:38.020Z,1.60
2017-09-14T00:51:07.980Z,1.60
2017-09-14T00:53:36.342Z,1.73
2017-09-14T00:56:05.062Z,1.40
2017-09-14T00:58:33.467Z,1.97
2017-09-14T01:01:01.845Z,2.13
2017-09-14T01:03:31.906Z,1.70
2017-09-14T01:06:01.217Z,1.47
2017-09-14T01:08:29.581Z,1.70
2017-09-14T01:10:58.484Z,1.30
2017-09-14T01:13:27.324Z,1.60
2017-09-14T01:15:55.679Z,1.80
2017-09-14T01:18:25.354Z,1.67
2017-09-14T01:20:54.430Z,1.33
2017-09-14T01:23:23.548Z,1.63
2017-09-14T01:25:52.441Z,1.87
2017-09-14T01:28:21.493Z,2.10
2017-09-14T01:30:50.655Z,1.70
2017-09-14T01:33:20.945Z,1.53
2017-09-14T01:35:49.543Z,1.80
2017-09-14T01:38:17.926Z,2.00
2017-09-14T01:40:47.415Z,2.40
2017-09-14T01:43:15.803Z,3.03
2017-09-14T01:45:44.384Z,2.20
2017-09-14T01:48:13.075Z,1.57
2017-09-14T01:50:42.907Z,1.60
2017-09-14T01:53:11.254Z,1.90
2017-09-14T01:55:41.176Z,2.00
2017-09-14T01:58:09.497Z,1.40
2017-09-14T02:00:38.625Z,1.97
2017-09-14T02:03:07.281Z,2.03
2017-09-14T02:05:35.859Z,2.73
2017-09-14T02:08:05.020Z,2.13
2017-09-14T02:10:33.775Z,2.20
2017-09-14T02:13:02.919Z,2.40
2017-09-14T02:15:31.281Z,2.10
2017-09-14T02:18:01.598Z,2.30
2017-09-14T02:20:29.953Z,1.83
2017-09-14T02:22:59.197Z,1.77
2017-09-14T02:25:28.615Z,2.10
2017-09-14T02:27:56.985Z,2.83
2017-09-14T02:30:25.426Z,1.60
2017-09-14T02:32:54.360Z,1.70
2017-09-14T02:35:22.732Z,1.80
2017-09-14T02:37:52.705Z,2.00
2017-09-14T02:40:22.380Z,2.00
2017-09-14T02:42:51.415Z,2.00
2017-09-14T02:45:19.778Z,1.90
2017-09-14T02:47:49.812Z,2.37
2017-09-14T02:50:19.185Z,2.20
2017-09-14T02:52:47.539Z,2.00
2017-09-14T02:55:17.719Z,2.30
2017-09-14T02:57:48.223Z,2.40
2017-09-14T03:00:16.559Z,2.47
2017-09-14T03:02:45.239Z,2.73
2017-09-14T03:05:13.584Z,2.37
2017-09-14T03:07:43.018Z,2.00
2017-09-14T03:10:11.722Z,1.90
2017-09-14T03:12:40.086Z,2.93
2017-09-14T03:15:08.447Z,2.53
2017-09-14T03:17:37.077Z,2.93
2017-09-14T03:20:05.428Z,2.43
2017-09-14T03:22:33.778Z,2.47
2017-09-14T03:25:02.486Z,2.70
2017-09-14T03:27:31.728Z,2.70
2017-09-14T03:30:00.893Z,2.30
2017-09-14T03:32:29.606Z,2.73
2017-09-14T03:34:58.322Z,2.70
2017-09-14T03:37:27.478Z,2.43
2017-09-14T03:39:56.793Z,3.03
2017-09-14T03:42:25.216Z,2.20
2017-09-14T03:44:53.605Z,2.87
2017-09-14T03:47:22.939Z,2.83
2017-09-14T03:49:51.392Z,2.43
2017-09-14T03:52:19.975Z,3.20
2017-09-14T03:54:49.782Z,2.83
2017-09-14T03:57:18.948Z,3.30
2017-09-14T03:59:47.293Z,2.40
2017-09-14T04:02:16.011Z,2.50
2017-09-14T04:04:44.642Z,3.00
2017-09-14T04:07:12.993Z,2.27
2017-09-14T04:09:42.353Z,2.13
2017-09-14T04:12:10.943Z,2.23
2017-09-14T04:14:40.180Z,2.00
2017-09-14T04:17:09.794Z,2.63
2017-09-14T04:19:39.038Z,2.50
2017-09-14T04:22:07.388Z,2.30
2017-09-14T04:24:36.903Z,2.00
2017-09-14T04:27:05.481Z,2.90
2017-09-14T04:29:33.858Z,2.20
2017-09-14T04:32:02.855Z,2.53
2017-09-14T04:34:31.228Z,2.13
2017-09-14T04:36:59.577Z,2.23
2017-09-14T04:39:29.027Z,2.47
2017-09-14T04:41:57.389Z,2.37
2017-09-14T04:44:26.323Z,2.43
2017-09-14T04:46:55.052Z,3.10
2017-09-14T04:49:23.402Z,2.20
2017-09-14T04:51:52.763Z,2.40
2017-09-14T04:54:22.363Z,2.23
2017-09-14T04:56:50.717Z,3.43
2017-09-14T04:59:19.822Z,2.10
2017-09-14T05:01:49.437Z,2.27
2017-09-14T05:04:20.368Z,2.13
2017-09-14T05:06:48.740Z,1.90
2017-09-14T05:09:18.163Z,1.83
2017-09-14T05:11:46.531Z,2.00
2017-09-14T05:14:15.647Z,2.43
2017-09-14T05:16:45.482Z,2.30
2017-09-14T05:19:13.831Z,1.93
2017-09-14T05:21:42.181Z,2.20
2017-09-14T05:24:12.221Z,2.67
2017-09-14T05:26:40.892Z,1.93
2017-09-14T05:29:10.004Z,3.10
2017-09-14T05:31:38.691Z,1.80
2017-09-14T05:34:07.052Z,2.17
2017-09-14T05:36:35.408Z,2.67
2017-09-14T05:39:04.313Z,2.53
2017-09-14T05:41:33.546Z,2.30
2017-09-14T05:44:01.901Z,2.20
2017-09-14T05:46:31.325Z,2.30
2017-09-14T05:49:00.392Z,2.00
2017-09-14T05:51:28.785Z,2.60
2017-09-14T05:53:58.220Z,2.00
2017-09-14T05:56:26.570Z,2.00
2017-09-14T05:58:56.289Z,2.07
2017-09-14T06:01:25.028Z,2.53
2017-09-14T06:03:54.110Z,2.13
2017-09-14T06:06:22.500Z,2.80
2017-09-14T06:08:51.206Z,1.53
2017-09-14T06:11:20.137Z,2.63
2017-09-14T06:13:48.488Z,2.40
2017-09-14T06:16:17.474Z,1.90
2017-09-14T06:18:45.831Z,3.07
2017-09-14T06:21:14.216Z,1.90
2017-09-14T06:23:43.058Z,2.53
2017-09-14T06:26:11.410Z,2.50
2017-09-14T06:28:39.766Z,4.63
2017-09-14T06:31:09.958Z,2.33
2017-09-14T06:33:38.290Z,2.50
2017-09-14T06:36:06.665Z,2.97
2017-09-14T06:38:35.329Z,2.57
2017-09-14T06:41:04.441Z,2.50
2017-09-14T06:43:32.797Z,2.70
2017-09-14T06:46:01.500Z,2.80
2017-09-14T06:48:30.640Z,2.67
2017-09-14T06:50:59.828Z,3.80
2017-09-14T06:53:28.882Z,2.27
2017-09-14T06:55:58.032Z,2.93
2017-09-14T06:58:26.384Z,3.00
2017-09-14T07:00:55.224Z,2.80
2017-09-14T07:03:23.570Z,3.07
2017-09-14T07:05:52.200Z,3.10
2017-09-14T07:08:22.536Z,3.10
2017-09-14T07:10:50.919Z,3.70
2017-09-14T07:13:20.037Z,2.50
2017-09-14T07:15:48.707Z,2.40
2017-09-14T07:18:19.343Z,2.77
2017-09-14T07:20:49.822Z,3.60
2017-09-14T07:23:18.301Z,3.70
2017-09-14T07:25:46.661Z,3.30
2017-09-14T07:28:15.550Z,3.30
2017-09-14T07:30:43.905Z,3.80
2017-09-14T07:33:12.261Z,2.93
2017-09-14T07:35:41.192Z,3.27
2017-09-14T07:38:10.076Z,3.37
2017-09-14T07:40:39.262Z,3.87
2017-09-14T07:43:08.478Z,3.03
2017-09-14T07:45:37.613Z,3.00
2017-09-14T07:48:05.986Z,3.17
2017-09-14T07:50:35.067Z,3.40
2017-09-14T07:53:03.513Z,4.27
2017-09-14T07:55:31.896Z,3.63
2017-09-14T07:58:01.334Z,3.57
2017-09-14T08:00:29.679Z,3.00
2017-09-14T08:02:58.000Z,3.33
2017-09-14T08:05:26.785Z,4.00
2017-09-14T08:07:55.155Z,3.43
2017-09-14T08:10:23.543Z,3.33
2017-09-14T08:12:52.647Z,3.60
2017-09-14T08:15:21.661Z,3.37
2017-09-14T08:17:50.013Z,3.40
2017-09-14T08:20:18.685Z,3.13
2017-09-14T08:22:47.803Z,3.37
2017-09-14T08:25:17.087Z,3.03
2017-09-14T08:27:46.591Z,3.47
2017-09-14T08:30:15.682Z,3.47
2017-09-14T08:32:44.795Z,3.27
2017-09-14T08:35:14.594Z,2.90
2017-09-14T08:37:42.943Z,3.73
2017-09-14T08:40:11.282Z,2.83
2017-09-14T08:42:39.907Z,2.67
2017-09-14T08:45:08.270Z,3.40
2017-09-14T08:47:37.448Z,2.90
2017-09-14T08:50:06.110Z,2.77
2017-09-14T08:52:34.475Z,3.00
2017-09-14T08:55:05.671Z,3.43
2017-09-14T08:57:35.237Z,2.47
2017-09-14T09:00:03.639Z,2.80
2017-09-14T09:02:32.739Z,3.10
2017-09-14T09:05:01.370Z,3.37
2017-09-14T09:07:32.090Z,2.60
2017-09-14T09:10:00.444Z,2.67
2017-09-14T09:12:29.174Z,27.23
2017-09-14T09:14:58.320Z,2.33
2017-09-14T09:17:26.667Z,3.43
2017-09-14T09:19:56.512Z,2.57
2017-09-14T09:22:24.890Z,2.40
2017-09-14T09:24:53.475Z,2.60
2017-09-14T09:27:22.089Z,3.50
2017-09-14T09:29:50.442Z,2.50
2017-09-14T09:32:18.778Z,2.93
2017-09-14T09:34:48.253Z,2.50
2017-09-14T09:37:17.014Z,3.00
2017-09-14T09:39:45.363Z,2.20
2017-09-14T09:42:14.367Z,3.00
2017-09-14T09:44:42.760Z,2.47
2017-09-14T09:47:11.879Z,2.97
2017-09-14T09:49:40.673Z,2.93
2017-09-14T09:52:11.831Z,2.37
2017-09-14T09:54:40.200Z,2.77
2017-09-14T09:57:09.851Z,2.47
2017-09-14T09:59:38.287Z,3.00
2017-09-14T10:02:06.638Z,2.97
2017-09-14T10:04:35.620Z,2.50
2017-09-14T10:07:03.988Z,2.77
2017-09-14T10:09:32.340Z,3.33
2017-09-14T10:12:00.973Z,2.70
2017-09-14T10:14:30.228Z,2.10
2017-09-14T10:16:59.382Z,2.03
2017-09-14T10:19:29.891Z,2.50
2017-09-14T10:21:58.224Z,2.60
2017-09-14T10:24:27.330Z,2.50
2017-09-14T10:26:57.265Z,2.70
2017-09-14T10:29:26.381Z,2.50
2017-09-14T10:31:54.786Z,2.70
2017-09-14T10:34:23.762Z,2.23
2017-09-14T10:36:53.051Z,2.80
2017-09-14T10:39:22.200Z,2.83
2017-09-14T10:41:51.152Z,3.10
2017-09-14T10:44:19.515Z,2.73
2017-09-14T10:46:47.898Z,2.87
2017-09-14T10:49:16.601Z,2.80
2017-09-14T10:51:46.790Z,2.80
2017-09-14T10:54:15.933Z,2.70
2017-09-14T10:56:44.614Z,2.70
2017-09-14T10:59:12.986Z,2.93
2017-09-14T11:01:42.106Z,3.90
2017-09-14T11:04:11.546Z,2.90
2017-09-14T11:06:40.738Z,3.00
2017-09-14T11:09:09.110Z,2.13
2017-09-14T11:11:38.946Z,2.67
2017-09-14T11:14:07.300Z,2.80
2017-09-14T11:16:36.438Z,2.00
2017-09-14T11:19:05.116Z,2.40
2017-09-14T11:21:33.486Z,2.90
2017-09-14T11:24:01.851Z,2.43
2017-09-14T11:26:31.484Z,2.40
2017-09-14T11:28:59.815Z,2.80
2017-09-14T11:31:28.174Z,2.50
2017-09-14T11:33:57.119Z,2.30
2017-09-14T11:36:26.000Z,2.30
2017-09-14T11:38:55.749Z,2.80
2017-09-14T11:41:24.415Z,2.10
2017-09-14T11:43:52.751Z,2.30
2017-09-14T11:46:21.098Z,2.90
2017-09-14T11:48:49.874Z,2.23
2017-09-14T11:51:18.273Z,2.77
2017-09-14T11:53:46.601Z,2.57
2017-09-14T11:56:16.525Z,2.20
2017-09-14T11:58:45.862Z,1.70
2017-09-14T12:01:15.180Z,2.03
2017-09-14T12:03:44.861Z,2.53
2017-09-14T12:06:13.199Z,1.90
2017-09-14T12:08:42.345Z,2.17
2017-09-14T12:11:11.916Z,3.70
2017-09-14T12:13:40.743Z,2.23
2017-09-14T12:16:09.176Z,2.77
2017-09-14T12:18:38.609Z,2.13
2017-09-14T12:21:06.967Z,3.03
2017-09-14T12:23:36.655Z,2.43
2017-09-14T12:26:05.403Z,2.33
2017-09-14T12:28:33.729Z,2.67
2017-09-14T12:31:02.081Z,2.77
2017-09-14T12:33:30.719Z,2.60
2017-09-14T12:35:59.093Z,2.70
2017-09-14T12:38:30.014Z,2.27
2017-09-14T12:40:59.479Z,3.00
2017-09-14T12:43:28.208Z,2.20
2017-09-14T12:45:57.580Z,2.10
2017-09-14T12:48:26.273Z,2.37
2017-09-14T12:50:55.596Z,2.17
2017-09-14T12:53:23.983Z,2.57
2017-09-14T12:55:52.660Z,2.23
2017-09-14T12:58:21.778Z,2.30
2017-09-14T13:00:50.940Z,2.33
2017-09-14T13:03:19.988Z,2.17
2017-09-14T13:05:48.619Z,1.67
2017-09-14T13:08:16.989Z,2.00
2017-09-14T13:10:45.681Z,1.40
2017-09-14T13:13:14.056Z,2.47
2017-09-14T13:15:42.432Z,1.73
2017-09-14T13:18:11.220Z,1.60
2017-09-14T13:20:39.683Z,1.60
2017-09-14T13:23:08.800Z,1.90
2017-09-14T13:25:38.198Z,1.80
2017-09-14T13:28:06.730Z,1.50
2017-09-14T13:30:35.954Z,1.30
2017-09-14T13:33:04.893Z,1.70
2017-09-14T13:35:35.088Z,1.70
2017-09-14T13:38:03.525Z,1.57
2017-09-14T13:40:34.186Z,2.03
2017-09-14T13:43:02.574Z,1.73
2017-09-14T13:45:30.930Z,1.77
2017-09-14T13:48:01.184Z,2.10
2017-09-14T13:50:29.680Z,1.90
2017-09-14T13:52:58.863Z,1.93
2017-09-14T13:55:27.915Z,2.00
2017-09-14T13:57:57.097Z,1.70
2017-09-14T14:00:25.458Z,2.20
2017-09-14T14:02:54.172Z,1.50
2017-09-14T14:05:23.282Z,1.93
2017-09-14T14:07:52.467Z,2.30
2017-09-14T14:10:21.461Z,3.00
2017-09-14T14:12:50.570Z,1.77
2017-09-14T14:15:19.779Z,1.80
2017-09-14T14:17:48.679Z,2.03
2017-09-14T14:20:17.438Z,1.83
2017-09-14T14:22:46.581Z,1.77
2017-09-14T14:25:15.642Z,1.93
2017-09-14T14:27:44.803Z,1.90
2017-09-14T14:30:13.139Z,1.73
2017-09-14T14:32:42.036Z,1.97
2017-09-14T14:35:10.413Z,1.57
2017-09-14T14:37:38.792Z,2.00
2017-09-14T14:40:08.187Z,2.00
2017-09-14T14:42:36.546Z,1.50
2017-09-14T14:45:04.876Z,2.70
2017-09-14T14:47:33.814Z,1.73
2017-09-14T14:50:04.276Z,2.07
2017-09-14T14:52:33.716Z,1.83
2017-09-14T14:55:04.651Z,1.73
2017-09-14T14:57:33.011Z,1.83
2017-09-14T15:00:01.370Z,1.97
2017-09-14T15:02:30.845Z,1.83
2017-09-14T15:04:59.973Z,2.00
2017-09-14T15:07:28.332Z,1.80
2017-09-14T15:09:56.931Z,1.50
2017-09-14T15:12:25.831Z,1.67
2017-09-14T15:14:54.168Z,1.87
2017-09-14T15:17:23.778Z,1.70
2017-09-14T15:19:53.120Z,1.30
2017-09-14T15:22:22.396Z,1.77
2017-09-14T15:24:52.014Z,2.13
2017-09-14T15:27:21.180Z,1.77
2017-09-14T15:29:50.277Z,1.80
2017-09-14T15:32:19.711Z,2.13
2017-09-14T15:34:48.089Z,2.07
2017-09-14T15:37:22.206Z,2.33
2017-09-14T15:39:56.706Z,2.77
2017-09-14T15:42:31.557Z,1.90
2017-09-14T15:45:05.385Z,1.90
2017-09-14T15:47:34.589Z,2.20
2017-09-14T15:50:08.344Z,2.00
2017-09-14T15:52:39.091Z,2.73
2017-09-14T15:55:07.502Z,1.87
2017-09-14T15:57:35.838Z,2.20
2017-09-14T16:00:05.454Z,1.90
2017-09-14T16:02:34.793Z,1.83
2017-09-14T16:05:03.865Z,1.77
2017-09-14T16:07:32.643Z,1.83
2017-09-14T16:10:00.982Z,1.90
2017-09-14T16:12:29.349Z,1.93
2017-09-14T16:14:58.330Z,1.73
2017-09-14T16:17:26.694Z,1.90
2017-09-14T16:19:55.048Z,1.60
2017-09-14T16:22:23.813Z,1.93
2017-09-14T16:24:53.715Z,2.10
2017-09-14T16:27:22.098Z,1.40
2017-09-14T16:29:51.065Z,1.83
2017-09-14T16:32:20.273Z,1.80
2017-09-14T16:34:49.514Z,1.97
2017-09-14T16:37:19.626Z,2.13
2017-09-14T16:39:47.989Z,1.90
2017-09-14T16:42:16.610Z,2.30
2017-09-14T16:44:45.388Z,1.90
2017-09-14T16:47:13.770Z,1.97
2017-09-14T16:49:46.266Z,2.53
2017-09-14T16:52:14.668Z,1.90
2017-09-14T16:54:43.027Z,1.93
2017-09-14T16:57:11.800Z,1.73
2017-09-14T16:59:41.980Z,2.50
2017-09-14T17:02:11.424Z,1.40
2017-09-14T17:04:40.841Z,2.17
2017-09-14T17:07:09.208Z,1.53
2017-09-14T17:09:39.039Z,1.50
2017-09-14T17:12:08.747Z,1.57
2017-09-14T17:14:37.115Z,1.90
2017-09-14T17:17:06.274Z,1.73
2017-09-14T17:19:35.459Z,1.33
2017-09-14T17:22:03.808Z,1.60
2017-09-14T17:24:32.159Z,1.63
2017-09-14T17:27:01.577Z,1.67
2017-09-14T17:29:29.956Z,1.20
2017-09-14T17:31:58.299Z,1.30
2017-09-14T17:34:26.922Z,1.27
2017-09-14T17:36:55.578Z,1.30
2017-09-14T17:39:24.107Z,1.70
2017-09-14T17:41:52.931Z,1.67
2017-09-14T17:44:22.115Z,1.20
2017-09-14T17:46:51.385Z,1.80
2017-09-14T17:49:20.023Z,1.53
2017-09-14T17:51:48.387Z,1.47
2017-09-14T17:54:17.326Z,1.30
2017-09-14T17:56:46.801Z,2.10
2017-09-14T17:59:16.113Z,1.47
2017-09-14T18:01:44.471Z,1.40
2017-09-14T18:04:13.297Z,1.17
2017-09-14T18:06:43.470Z,1.20
2017-09-14T18:09:12.052Z,1.27
2017-09-14T18:11:43.581Z,1.27
2017-09-14T18:14:11.931Z,1.27
2017-09-14T18:16:41.042Z,1.60
2017-09-14T18:19:09.711Z,2.13
2017-09-14T18:21:38.875Z,1.47
2017-09-14T18:24:07.560Z,1.77
2017-09-14T18:26:36.268Z,1.57
2017-09-14T18:29:05.325Z,1.60
2017-09-14T18:31:34.607Z,1.33
2017-09-14T18:34:03.274Z,1.20
2017-09-14T18:36:32.747Z,1.13
2017-09-14T18:39:01.105Z,1.30
2017-09-14T18:41:30.669Z,1.20
2017-09-14T18:44:01.978Z,1.13
2017-09-14T18:46:30.345Z,1.20
2017-09-14T18:48:59.225Z,1.03
2017-09-14T18:51:28.410Z,1.60
2017-09-14T18:53:58.481Z,1.70
2017-09-14T18:56:27.978Z,1.40
2017-09-14T18:58:57.785Z,1.43
2017-09-14T19:01:26.123Z,1.80
2017-09-14T19:03:55.674Z,1.30
2017-09-14T19:06:24.040Z,1.40
2017-09-14T19:08:52.428Z,1.87
2017-09-14T19:11:21.321Z,1.60
2017-09-14T19:13:51.494Z,1.90
2017-09-14T19:16:22.667Z,1.63
2017-09-14T19:18:51.068Z,1.60
2017-09-14T19:21:19.476Z,1.27
2017-09-14T19:23:48.123Z,1.67
2017-09-14T19:26:17.611Z,1.50
2017-09-14T19:28:47.118Z,2.07
2017-09-14T19:31:16.913Z,1.70
2017-09-14T19:33:46.176Z,2.40
2017-09-14T19:36:15.599Z,1.90
2017-09-14T19:38:45.767Z,1.60
2017-09-14T19:41:15.133Z,1.80
2017-09-14T19:43:44.326Z,2.30
2017-09-14T19:46:14.113Z,2.10
2017-09-14T19:48:42.698Z,2.43
2017-09-14T19:51:11.841Z,2.17
2017-09-14T19:53:42.190Z,2.00
2017-09-14T19:56:10.518Z,2.13
2017-09-14T19:58:39.786Z,2.20
2017-09-14T20:01:09.366Z,2.30
2017-09-14T20:03:38.123Z,2.13
2017-09-14T20:06:07.273Z,2.83
2017-09-14T20:08:36.040Z,2.90
2017-09-14T20:11:05.820Z,3.30
2017-09-14T20:13:34.278Z,3.40
2017-09-14T20:16:04.864Z,3.30
2017-09-14T20:18:33.256Z,4.80
2017-09-14T20:21:01.624Z,3.50
2017-09-14T20:23:31.249Z,4.40
2017-09-14T20:25:59.640Z,3.50
2017-09-14T20:28:28.384Z,4.20
2017-09-14T20:30:57.678Z,4.03
2017-09-14T20:33:26.370Z,4.37
2017-09-14T20:35:54.794Z,5.00
2017-09-14T20:38:23.736Z,3.83
2017-09-14T20:40:52.161Z,4.83
2017-09-14T20:43:20.521Z,4.60
2017-09-14T20:45:49.202Z,4.73
2017-09-14T20:48:17.618Z,4.63
2017-09-14T20:50:50.152Z,4.43
2017-09-14T20:53:19.440Z,4.67
2017-09-14T20:55:48.085Z,5.20
2017-09-14T20:58:16.469Z,5.20
2017-09-14T21:00:46.022Z,5.27
2017-09-14T21:03:14.415Z,5.93
2017-09-14T21:05:42.782Z,5.17
2017-09-14T21:08:11.682Z,6.00
2017-09-14T21:10:40.065Z,5.70
2017-09-14T21:13:08.473Z,6.20
2017-09-14T21:15:37.957Z,7.30
2017-09-14T21:18:06.763Z,7.87
2017-09-14T21:20:35.118Z,7.00
2017-09-14T21:23:03.826Z,7.93
2017-09-14T21:25:32.579Z,7.77
2017-09-14T21:28:00.978Z,9.07
2017-09-14T21:30:30.689Z,8.87
2017-09-14T21:32:59.061Z,9.13
2017-09-14T21:35:27.456Z,9.03
2017-09-14T21:37:56.320Z,8.70
2017-09-14T21:40:24.744Z,8.70
2017-09-14T21:42:53.982Z,10.03
2017-09-14T21:45:23.594Z,11.17
2017-09-14T21:47:52.003Z,11.07
2017-09-14T21:50:20.367Z,10.50
2017-09-14T21:52:49.076Z,12.47
2017-09-14T21:55:17.455Z,11.40
2017-09-14T21:57:45.854Z,11.80
2017-09-14T22:00:14.535Z,12.17
2017-09-14T22:02:43.022Z,12.80
2017-09-14T22:05:11.392Z,12.23
2017-09-14T22:07:40.213Z,12.20
2017-09-14T22:10:09.376Z,12.67
2017-09-14T22:12:38.476Z,12.00
2017-09-14T22:15:08.669Z,12.50
2017-09-14T22:17:37.674Z,13.10
2017-09-14T22:20:06.044Z,11.90
2017-09-14T22:22:34.781Z,12.03
2017-09-14T22:25:03.164Z,11.90
2017-09-14T22:27:31.560Z,12.90
2017-09-14T22:30:00.372Z,12.43
2017-09-14T22:32:28.781Z,10.87
2017-09-14T22:34:57.134Z,11.37
2017-09-14T22:37:26.074Z,10.30
2017-09-14T22:39:54.673Z,10.47
2017-09-14T22:42:23.836Z,10.40
2017-09-14T22:44:53.010Z,9.20
2017-09-14T22:47:21.439Z,9.30
2017-09-14T22:49:50.979Z,8.50
2017-09-14T22:52:19.697Z,8.40
2017-09-14T22:54:48.309Z,7.60
2017-09-14T22:57:17.375Z,7.50
2017-09-14T22:59:46.029Z,7.17
2017-09-14T23:02:14.428Z,6.33
2017-09-14T23:04:42.820Z,6.93
2017-09-14T23:07:11.506Z,7.00
2017-09-14T23:09:40.871Z,6.53
2017-09-14T23:12:09.930Z,5.93
2017-09-14T23:14:39.069Z,5.77
2017-09-14T23:17:07.431Z,5.03
2017-09-14T23:19:37.332Z,5.13
2017-09-14T23:22:06.179Z,4.40
2017-09-14T23:24:34.541Z,4.33
2017-09-14T23:27:03.762Z,4.60
2017-09-14T23:29:33.562Z,4.00
2017-09-14T23:32:03.172Z,3.80
2017-09-14T23:34:31.624Z,3.83
2017-09-14T23:37:00.446Z,3.00
2017-09-14T23:39:29.543Z,3.90
2017-09-14T23:41:58.778Z,2.80
2017-09-14T23:44:27.488Z,2.37
2017-09-14T23:46:55.861Z,2.50
2017-09-14T23:49:24.270Z,2.17
2017-09-14T23:51:52.959Z,3.27
2017-09-14T23:54:24.252Z,3.07
2017-09-14T23:56:54.119Z,2.53
2017-09-14T23:59:23.203Z,3.40
